Time;durP1;ratioP1;P1;durP2;ratioP2;P2;SDS_P1;SDS_P2;PMS_P1;PMS_P2;Temp;Humidity;BMP_temperature;BMP_pressure;BME280_temperature;BME280_humidity;BME280_pressure;Samples;Min_cycle;Max_cycle;Signal;HPM_P1;HPM_P2
2023/03/23 00:01:49;;;;;;;70.20;49.42;;;16.20;73.80;;;;;;4973926;28;91501;-74
2023/03/23 00:04:16;;;;;;;70.40;49.65;;;16.20;73.90;;;;;;4965991;28;89525;-75
2023/03/23 00:06:44;;;;;;;71.10;49.97;;;16.20;73.80;;;;;;4949855;28;91432;-74
2023/03/23 00:09:14;;;;;;;70.50;49.80;;;16.20;73.80;;;;;;4952075;28;90089;-74
2023/03/23 00:11:42;;;;;;;70.35;49.42;;;16.20;73.80;;;;;;4967075;28;91030;-75
2023/03/23 00:14:12;;;;;;;69.90;49.55;;;16.20;73.80;;;;;;4959361;28;91727;-73
2023/03/23 00:16:40;;;;;;;71.10;50.00;;;16.20;73.80;;;;;;4961159;28;91820;-74
2023/03/23 00:19:14;;;;;;;70.82;49.60;;;16.20;73.80;;;;;;4960371;28;90016;-75
2023/03/23 00:21:41;;;;;;;72.15;49.83;;;16.20;73.80;;;;;;4958268;28;90648;-74
2023/03/23 00:24:09;;;;;;;71.10;49.85;;;16.20;73.80;;;;;;4966518;28;90058;-74
2023/03/23 00:26:39;;;;;;;69.95;49.42;;;16.20;73.80;;;;;;4963779;28;91289;-74
2023/03/23 00:29:07;;;;;;;69.60;49.23;;;16.20;73.70;;;;;;4960137;28;89778;-74
2023/03/23 00:31:35;;;;;;;70.10;49.70;;;16.10;73.70;;;;;;4967114;28;88553;-74
2023/03/23 00:34:03;;;;;;;71.10;49.60;;;16.10;73.70;;;;;;4968843;28;92021;-75
2023/03/23 00:36:34;;;;;;;70.53;49.88;;;16.10;73.80;;;;;;4955684;28;91290;-75
2023/03/23 00:39:03;;;;;;;70.53;49.95;;;16.10;73.70;;;;;;4964370;28;90408;-75
2023/03/23 00:41:29;;;;;;;70.63;49.58;;;16.10;73.70;;;;;;4968535;28;90082;-75
2023/03/23 00:43:57;;;;;;;70.13;49.65;;;16.10;73.80;;;;;;4966104;28;91820;-73
2023/03/23 00:46:24;;;;;;;69.88;49.45;;;16.20;73.70;;;;;;4966857;28;90804;-73
2023/03/23 00:48:51;;;;;;;71.97;49.47;;;16.20;73.70;;;;;;4952247;28;92612;-74
2023/03/23 00:51:20;;;;;;;71.63;49.78;;;16.10;73.70;;;;;;4957626;28;91816;-74
2023/03/23 00:53:46;;;;;;;69.80;49.65;;;16.10;73.40;;;;;;4964216;28;91881;-74
2023/03/23 00:56:13;;;;;;;69.97;49.63;;;16.10;73.50;;;;;;4957921;28;88897;-75
2023/03/23 00:58:39;;;;;;;70.50;49.40;;;16.10;73.70;;;;;;4972994;28;89790;-74
2023/03/23 01:01:05;;;;;;;69.40;49.38;;;16.10;73.60;;;;;;4961343;28;89365;-74
2023/03/23 01:03:31;;;;;;;70.05;49.63;;;16.10;73.60;;;;;;4956546;28;93158;-74
2023/03/23 01:05:57;;;;;;;69.78;49.50;;;16.10;73.70;;;;;;4965268;28;89797;-75
2023/03/23 01:08:23;;;;;;;70.13;49.75;;;16.10;73.60;;;;;;4952700;28;90504;-74
2023/03/23 01:10:50;;;;;;;69.78;49.60;;;16.10;73.80;;;;;;4950870;28;91926;-74
2023/03/23 01:13:16;;;;;;;69.60;49.45;;;16.10;73.70;;;;;;4964787;28;89652;-74
2023/03/23 01:15:42;;;;;;;69.82;49.50;;;16.10;73.70;;;;;;4952971;28;90763;-74
2023/03/23 01:18:09;;;;;;;70.28;49.67;;;16.00;73.60;;;;;;4954645;28;89644;-74
2023/03/23 01:20:36;;;;;;;70.30;49.55;;;16.10;73.70;;;;;;4954644;28;90342;-73
2023/03/23 01:23:02;;;;;;;69.88;49.45;;;16.00;73.70;;;;;;4952159;28;90241;-74
2023/03/23 01:25:30;;;;;;;70.20;49.67;;;16.10;73.80;;;;;;4958873;28;89822;-75
2023/03/23 01:27:57;;;;;;;70.80;49.45;;;16.10;73.70;;;;;;4949842;28;92174;-73
2023/03/23 01:30:23;;;;;;;70.65;49.50;;;16.00;73.60;;;;;;4960753;28;90417;-75
2023/03/23 01:32:51;;;;;;;69.05;49.17;;;16.00;73.60;;;;;;4966264;28;90649;-74
2023/03/23 01:35:17;;;;;;;69.85;49.28;;;16.00;73.60;;;;;;4964242;28;90565;-74
2023/03/23 01:37:43;;;;;;;69.50;49.30;;;16.00;73.60;;;;;;4975557;28;89498;-74
2023/03/23 01:40:10;;;;;;;71.47;49.45;;;16.00;73.70;;;;;;4974399;28;90130;-74
2023/03/23 01:42:37;;;;;;;70.18;49.60;;;16.00;73.60;;;;;;4972940;28;89893;-73
2023/03/23 01:45:30;;;;;;;69.97;49.20;;;16.00;73.60;;;;;;4972507;28;89532;-73
2023/03/23 01:48:12;;;;;;;70.00;49.33;;;16.00;73.60;;;;;;4974116;28;89885;-73
2023/03/23 01:50:49;;;;;;;69.97;49.45;;;16.00;73.60;;;;;;4977174;28;89544;-74
2023/03/23 01:53:16;;;;;;;69.43;49.25;;;16.00;73.60;;;;;;4952696;28;93081;-74
2023/03/23 01:55:48;;;;;;;69.60;49.33;;;16.00;73.70;;;;;;4969546;28;90709;-74
2023/03/23 01:58:14;;;;;;;70.40;49.35;;;16.00;73.70;;;;;;4968473;28;89763;-73
2023/03/23 02:00:42;;;;;;;71.03;49.53;;;16.00;73.70;;;;;;4945968;28;91289;-75
2023/03/23 02:03:09;;;;;;;69.97;49.53;;;15.90;73.70;;;;;;4949479;28;91521;-75
2023/03/23 02:05:40;;;;;;;70.13;49.55;;;16.00;73.70;;;;;;4951318;28;90964;-74
2023/03/23 02:08:08;;;;;;;70.88;49.72;;;16.00;73.80;;;;;;4967345;28;91661;-75
2023/03/23 02:10:36;;;;;;;70.35;49.58;;;16.00;73.70;;;;;;4952752;28;94114;-74
2023/03/23 02:13:04;;;;;;;69.88;49.70;;;16.00;73.60;;;;;;4958505;28;90064;-74
2023/03/23 02:16:14;;;;;;;70.05;49.42;;;16.00;73.60;;;;;;4965051;28;89317;-74
2023/03/23 02:18:57;;;;;;;69.90;49.55;;;15.90;73.60;;;;;;4933094;28;91885;-75
2023/03/23 02:22:07;;;;;;;69.97;49.25;;;15.90;73.70;;;;;;4959081;28;90954;-75
2023/03/23 02:24:51;;;;;;;69.50;49.13;;;15.90;73.70;;;;;;4960111;28;89782;-74
2023/03/23 02:27:43;;;;;;;69.22;49.33;;;15.90;73.70;;;;;;4968990;28;89739;-73
2023/03/23 02:30:20;;;;;;;69.22;49.50;;;15.90;73.80;;;;;;4967801;28;89723;-74
2023/03/23 02:33:13;;;;;;;70.00;49.50;;;15.90;73.80;;;;;;4969585;28;89506;-74
2023/03/23 02:35:57;;;;;;;69.57;49.42;;;15.90;73.70;;;;;;4983152;28;90087;-75
2023/03/23 02:39:05;;;;;;;69.30;49.25;;;15.90;73.70;;;;;;4977909;28;91743;-74
2023/03/23 02:41:38;;;;;;;69.03;49.15;;;15.90;73.70;;;;;;4963218;28;89903;-74
2023/03/23 02:44:05;;;;;;;69.72;49.50;;;15.90;73.70;;;;;;4965067;28;89577;-73
2023/03/23 02:46:32;;;;;;;69.85;49.40;;;15.90;73.60;;;;;;4964575;28;92569;-75
2023/03/23 02:49:00;;;;;;;69.35;49.50;;;15.90;73.70;;;;;;4963294;28;91386;-74
2023/03/23 02:51:28;;;;;;;69.40;49.45;;;15.90;73.70;;;;;;4965319;28;90447;-74
2023/03/23 02:53:56;;;;;;;69.55;49.40;;;15.90;73.60;;;;;;4954654;28;90888;-74
2023/03/23 02:56:23;;;;;;;69.50;49.15;;;15.90;73.70;;;;;;4956908;28;91205;-74
2023/03/23 02:58:49;;;;;;;69.25;49.28;;;15.90;74.40;;;;;;4944520;28;89654;-74
2023/03/23 03:01:32;;;;;;;69.75;49.33;;;15.90;73.70;;;;;;4948671;28;89927;-73
2023/03/23 03:04:00;;;;;;;69.50;49.13;;;15.90;73.60;;;;;;4944330;28;89004;-73
2023/03/23 03:06:55;;;;;;;69.10;48.97;;;15.90;73.60;;;;;;4956254;28;90919;-74
2023/03/23 03:09:24;;;;;;;69.53;49.40;;;15.90;73.60;;;;;;4953174;28;89567;-74
2023/03/23 03:11:56;;;;;;;69.40;49.33;;;15.90;73.70;;;;;;4982492;28;90737;-73
2023/03/23 03:14:38;;;;;;;69.65;49.33;;;15.90;73.70;;;;;;4953527;28;91324;-74
2023/03/23 03:17:19;;;;;;;70.15;49.35;;;15.90;73.60;;;;;;4963042;28;91919;-74
2023/03/23 03:19:49;;;;;;;69.47;49.45;;;15.90;73.70;;;;;;4966525;28;89409;-73
2023/03/23 03:22:16;;;;;;;69.28;49.15;;;15.80;73.60;;;;;;4946875;28;89380;-74
2023/03/23 03:24:44;;;;;;;69.82;49.22;;;15.80;73.60;;;;;;4957587;28;93550;-75
2023/03/23 03:27:14;;;;;;;69.47;49.45;;;15.90;73.80;;;;;;4949230;28;91305;-74
2023/03/23 03:29:41;;;;;;;70.23;49.20;;;15.80;73.60;;;;;;4959748;28;88700;-74
2023/03/23 03:32:11;;;;;;;69.90;49.63;;;15.80;73.70;;;;;;4953604;28;89412;-74
2023/03/23 03:34:38;;;;;;;69.53;49.17;;;15.80;73.60;;;;;;4956390;28;89355;-73
2023/03/23 03:37:05;;;;;;;69.43;49.10;;;15.80;73.60;;;;;;4960795;28;90924;-74
2023/03/23 03:39:34;;;;;;;70.15;49.67;;;15.80;73.70;;;;;;4955077;28;89665;-75
2023/03/23 03:42:00;;;;;;;69.65;49.55;;;15.80;73.70;;;;;;4947674;28;90378;-74
2023/03/23 03:44:26;;;;;;;69.50;49.20;;;15.70;73.70;;;;;;4965204;28;90189;-74
2023/03/23 03:46:51;;;;;;;70.60;49.65;;;15.80;73.80;;;;;;4952773;28;91306;-74
2023/03/23 03:49:17;;;;;;;69.43;49.35;;;15.80;73.70;;;;;;4961528;28;90918;-74
2023/03/23 03:51:43;;;;;;;69.97;49.42;;;15.80;73.70;;;;;;4957808;28;90155;-74
2023/03/23 03:54:10;;;;;;;69.90;49.45;;;15.80;73.60;;;;;;4974288;28;88624;-74
2023/03/23 03:56:40;;;;;;;70.82;49.47;;;15.80;73.70;;;;;;4970966;28;90050;-74
2023/03/23 03:59:09;;;;;;;69.07;49.20;;;15.70;73.70;;;;;;4962090;28;89573;-75
2023/03/23 04:01:36;;;;;;;70.50;49.85;;;15.80;73.80;;;;;;4967250;28;90607;-74
2023/03/23 04:04:02;;;;;;;69.53;49.45;;;15.70;73.70;;;;;;4976220;28;90563;-75
2023/03/23 04:06:29;;;;;;;70.57;49.33;;;15.80;73.70;;;;;;4959212;28;89984;-74
2023/03/23 04:09:01;;;;;;;69.30;48.95;;;15.80;73.60;;;;;;4966580;28;90831;-74
2023/03/23 04:11:26;;;;;;;69.72;49.20;;;15.80;73.60;;;;;;4956184;28;91932;-74
2023/03/23 04:13:52;;;;;;;68.82;49.03;;;15.80;73.60;;;;;;4971819;28;90694;-73
2023/03/23 04:16:18;;;;;;;70.20;49.28;;;15.80;73.60;;;;;;4967588;28;91757;-74
2023/03/23 04:18:44;;;;;;;69.20;49.15;;;15.80;73.60;;;;;;4963033;28;89229;-73
2023/03/23 04:21:10;;;;;;;69.20;48.92;;;15.70;73.70;;;;;;4949455;28;94445;-73
2023/03/23 04:23:36;;;;;;;69.57;49.45;;;15.70;73.70;;;;;;4961736;28;91141;-74
2023/03/23 04:26:03;;;;;;;69.85;49.65;;;15.80;73.70;;;;;;4965181;28;91387;-73
2023/03/23 04:28:33;;;;;;;69.47;49.47;;;15.70;73.70;;;;;;4964457;28;89981;-74
2023/03/23 04:31:00;;;;;;;70.10;49.22;;;15.70;73.60;;;;;;4952672;28;89903;-74
2023/03/23 04:33:27;;;;;;;70.93;49.45;;;15.70;73.50;;;;;;4953669;28;89736;-74
2023/03/23 04:35:54;;;;;;;70.53;49.55;;;15.70;73.90;;;;;;4950134;28;89884;-74
2023/03/23 04:38:23;;;;;;;69.28;49.33;;;15.70;73.70;;;;;;4960455;28;91665;-75
2023/03/23 04:40:53;;;;;;;70.45;49.53;;;15.70;73.70;;;;;;4953082;28;90309;-73
2023/03/23 04:43:22;;;;;;;69.37;49.07;;;15.70;73.70;;;;;;4962612;28;89451;-74
2023/03/23 04:45:55;;;;;;;70.03;49.40;;;15.70;73.70;;;;;;4973800;28;90086;-74
2023/03/23 04:48:25;;;;;;;70.25;49.42;;;15.70;73.70;;;;;;4963163;28;91348;-74
2023/03/23 04:50:52;;;;;;;69.70;49.25;;;15.70;73.60;;;;;;4958518;28;91380;-73
2023/03/23 04:53:18;;;;;;;69.20;49.40;;;15.70;73.70;;;;;;4957055;28;90629;-73
2023/03/23 04:55:45;;;;;;;69.60;49.35;;;15.70;73.70;;;;;;4955343;28;90155;-73
2023/03/23 04:58:14;;;;;;;69.45;49.45;;;15.70;73.70;;;;;;4964276;28;91884;-74
2023/03/23 05:00:40;;;;;;;69.50;49.13;;;15.70;73.70;;;;;;4944138;28;92942;-73
2023/03/23 05:03:16;;;;;;;68.78;48.92;;;15.70;73.70;;;;;;4965030;28;90209;-74
2023/03/23 05:05:42;;;;;;;69.93;49.55;;;15.70;73.70;;;;;;4960036;28;90240;-74
2023/03/23 05:08:08;;;;;;;68.97;49.13;;;15.70;73.70;;;;;;4964104;28;89671;-74
2023/03/23 05:10:34;;;;;;;69.68;49.35;;;15.70;73.60;;;;;;4948718;28;90084;-73
2023/03/23 05:12:59;;;;;;;70.75;49.25;;;15.60;73.70;;;;;;4954124;28;89208;-74
2023/03/23 05:15:26;;;;;;;69.20;49.17;;;15.60;73.80;;;;;;4956712;28;93117;-73
2023/03/23 05:17:55;;;;;;;69.35;49.20;;;15.70;73.70;;;;;;4954197;28;91373;-74
2023/03/23 05:20:21;;;;;;;69.28;49.45;;;15.60;73.70;;;;;;4959252;28;89450;-73
2023/03/23 05:22:49;;;;;;;69.20;49.13;;;15.60;73.70;;;;;;4960205;28;90800;-74
2023/03/23 05:25:18;;;;;;;68.80;48.80;;;15.60;73.80;;;;;;4954731;28;91348;-72
2023/03/23 05:27:48;;;;;;;69.65;49.17;;;15.60;73.90;;;;;;4958825;28;90377;-73
2023/03/23 05:30:16;;;;;;;68.88;49.00;;;15.60;73.80;;;;;;4959218;28;94478;-74
2023/03/23 05:32:45;;;;;;;71.45;49.35;;;15.60;73.70;;;;;;4966371;28;88685;-74
2023/03/23 05:35:12;;;;;;;69.97;49.42;;;15.60;73.80;;;;;;4959578;28;91599;-73
2023/03/23 05:37:38;;;;;;;69.53;49.22;;;15.60;73.80;;;;;;4955534;28;95425;-74
2023/03/23 05:40:06;;;;;;;69.88;49.47;;;15.60;73.80;;;;;;4953332;28;91777;-73
2023/03/23 05:42:35;;;;;;;69.13;49.25;;;15.60;73.90;;;;;;4964398;28;89479;-75
2023/03/23 05:45:05;;;;;;;69.40;49.28;;;15.60;73.80;;;;;;4955660;28;96756;-76
2023/03/23 05:47:31;;;;;;;69.70;49.38;;;15.60;73.80;;;;;;4946795;28;94972;-73
2023/03/23 05:49:57;;;;;;;69.80;49.35;;;15.60;74.50;;;;;;4961593;28;91007;-74
2023/03/23 05:52:24;;;;;;;69.50;49.28;;;15.60;73.70;;;;;;4947948;28;90861;-75
2023/03/23 05:54:50;;;;;;;69.38;49.40;;;15.60;73.80;;;;;;4946460;28;92633;-76
2023/03/23 05:57:18;;;;;;;69.93;49.45;;;15.60;73.80;;;;;;4959068;28;90482;-72
2023/03/23 05:59:44;;;;;;;70.15;49.33;;;15.60;73.70;;;;;;4953622;28;90895;-73
2023/03/23 06:02:13;;;;;;;69.57;49.22;;;15.60;73.70;;;;;;4950832;28;90998;-74
2023/03/23 06:04:40;;;;;;;69.20;49.22;;;15.60;73.70;;;;;;4967840;28;92052;-72
2023/03/23 06:07:07;;;;;;;70.30;49.45;;;15.60;73.90;;;;;;4958211;28;89903;-73
2023/03/23 06:09:32;;;;;;;69.30;49.38;;;15.60;73.70;;;;;;4955696;28;89910;-71
2023/03/23 06:11:58;;;;;;;69.07;49.00;;;15.60;73.50;;;;;;4949174;28;90216;-73
2023/03/23 06:14:24;;;;;;;69.47;49.15;;;15.50;73.60;;;;;;4951941;28;93250;-74
2023/03/23 06:16:50;;;;;;;69.85;49.42;;;15.60;73.80;;;;;;4960561;28;95992;-73
2023/03/23 06:19:16;;;;;;;70.70;49.42;;;15.50;73.90;;;;;;4954971;28;90024;-73
2023/03/23 06:21:42;;;;;;;70.90;49.45;;;15.50;73.90;;;;;;4943701;28;89399;-72
2023/03/23 06:24:08;;;;;;;70.43;49.25;;;15.50;73.90;;;;;;4967415;28;89447;-73
2023/03/23 06:26:38;;;;;;;69.82;49.08;;;15.50;73.90;;;;;;4959029;28;90158;-70
2023/03/23 06:29:10;;;;;;;70.55;49.33;;;15.50;73.80;;;;;;4961590;28;93514;-71
2023/03/23 06:31:41;;;;;;;70.25;49.13;;;15.50;73.70;;;;;;4953693;28;90728;-70
2023/03/23 06:34:08;;;;;;;69.43;49.25;;;15.50;73.70;;;;;;4959375;28;89925;-71
2023/03/23 06:36:34;;;;;;;69.55;49.25;;;15.50;73.80;;;;;;4956149;28;89589;-70
2023/03/23 06:39:00;;;;;;;68.72;48.90;;;15.50;73.90;;;;;;4963338;28;89496;-69
2023/03/23 06:41:26;;;;;;;69.32;49.38;;;15.50;74.00;;;;;;4953258;28;89932;-71
2023/03/23 06:43:52;;;;;;;68.85;49.35;;;15.50;74.00;;;;;;4960171;28;90323;-70
2023/03/23 06:46:18;;;;;;;70.03;49.35;;;15.50;74.00;;;;;;4963621;28;90551;-70
2023/03/23 06:48:44;;;;;;;69.97;49.33;;;15.50;74.00;;;;;;4959749;28;90023;-69
2023/03/23 06:51:10;;;;;;;69.60;49.47;;;15.50;73.80;;;;;;4960917;28;90513;-71
2023/03/23 06:53:36;;;;;;;69.70;49.45;;;15.50;73.90;;;;;;4949933;28;91974;-70
2023/03/23 06:56:01;;;;;;;72.18;49.70;;;15.50;74.00;;;;;;4960639;28;89464;-71
2023/03/23 06:58:27;;;;;;;69.57;49.40;;;15.50;74.00;;;;;;4959783;28;90526;-71
2023/03/23 07:00:56;;;;;;;70.07;49.38;;;15.50;74.10;;;;;;4956424;28;89956;-71
2023/03/23 07:03:23;;;;;;;69.82;49.60;;;15.50;74.20;;;;;;4967135;28;90293;-71
2023/03/23 07:05:49;;;;;;;70.47;49.53;;;15.50;74.30;;;;;;4966681;28;89362;-70
2023/03/23 07:08:15;;;;;;;70.75;49.70;;;15.50;74.30;;;;;;4950617;28;91184;-71
2023/03/23 07:10:41;;;;;;;69.97;49.30;;;15.50;74.30;;;;;;4962779;28;89637;-71
2023/03/23 07:13:07;;;;;;;69.90;49.13;;;15.50;74.50;;;;;;4959619;28;89688;-70
2023/03/23 07:15:33;;;;;;;74.40;49.75;;;15.50;74.60;;;;;;4947510;28;90766;-71
2023/03/23 07:17:59;;;;;;;69.85;49.00;;;15.50;74.60;;;;;;4957378;28;90652;-71
2023/03/23 07:20:25;;;;;;;71.65;49.40;;;15.40;74.80;;;;;;4951124;28;90365;-70
2023/03/23 07:22:51;;;;;;;71.25;49.60;;;15.40;74.70;;;;;;4964590;28;90770;-72
2023/03/23 07:25:17;;;;;;;75.47;49.58;;;15.40;74.70;;;;;;4962617;28;95845;-70
2023/03/23 07:27:45;;;;;;;73.75;50.30;;;15.50;74.80;;;;;;4951478;28;89782;-72
2023/03/23 07:30:13;;;;;;;70.78;49.65;;;15.40;74.80;;;;;;4963602;28;89198;-70
2023/03/23 07:32:38;;;;;;;71.88;50.10;;;15.40;74.80;;;;;;4966576;28;89343;-72
2023/03/23 07:35:04;;;;;;;70.95;49.80;;;15.40;75.00;;;;;;4967994;28;88802;-69
2023/03/23 07:37:32;;;;;;;71.75;50.10;;;15.40;74.90;;;;;;4949843;28;90264;-71
2023/03/23 07:39:57;;;;;;;70.50;49.38;;;15.40;75.00;;;;;;4956683;28;89579;-70
2023/03/23 07:42:23;;;;;;;73.03;49.78;;;15.40;75.00;;;;;;4945269;28;90596;-71
2023/03/23 07:44:49;;;;;;;71.38;49.80;;;15.40;75.10;;;;;;4964658;28;90045;-69
2023/03/23 07:47:15;;;;;;;74.47;50.03;;;15.40;75.00;;;;;;4960409;28;89276;-69
2023/03/23 07:49:41;;;;;;;70.40;49.50;;;15.40;75.10;;;;;;4959740;28;91375;-71
2023/03/23 07:52:06;;;;;;;70.03;49.40;;;15.40;75.10;;;;;;4948892;28;90398;-70
2023/03/23 07:54:32;;;;;;;70.20;49.53;;;15.40;75.10;;;;;;4949803;28;92330;-70
2023/03/23 07:56:57;;;;;;;72.45;50.38;;;15.40;75.00;;;;;;4954986;28;89597;-71
2023/03/23 07:59:23;;;;;;;72.25;49.88;;;15.40;75.00;;;;;;4955414;28;89292;-68
2023/03/23 08:01:49;;;;;;;71.53;49.50;;;15.50;74.90;;;;;;4955136;28;91398;-71
2023/03/23 08:04:15;;;;;;;72.47;50.10;;;15.50;74.80;;;;;;4943443;28;93412;-70
2023/03/23 08:06:41;;;;;;;73.78;50.47;;;15.50;74.60;;;;;;4963934;28;91702;-71
2023/03/23 08:09:08;;;;;;;73.00;49.95;;;15.50;74.80;;;;;;4959868;28;90586;-70
2023/03/23 08:11:38;;;;;;;72.32;50.28;;;15.50;74.70;;;;;;4965102;28;89950;-70
2023/03/23 08:14:05;;;;;;;71.05;49.83;;;15.50;74.70;;;;;;4953411;28;89983;-72
2023/03/23 08:16:31;;;;;;;71.72;50.13;;;15.50;74.70;;;;;;4961013;28;90767;-69
2023/03/23 08:18:57;;;;;;;71.88;49.97;;;15.50;74.80;;;;;;4953421;28;91049;-69
2023/03/23 08:21:23;;;;;;;74.80;50.67;;;15.50;74.70;;;;;;4948133;28;89766;-71
2023/03/23 08:23:49;;;;;;;74.45;50.53;;;15.50;74.60;;;;;;4938410;28;89578;-74
2023/03/23 08:26:16;;;;;;;72.15;50.47;;;15.70;75.30;;;;;;4952456;28;90250;-70
2023/03/23 08:28:43;;;;;;;72.07;50.63;;;15.80;76.40;;;;;;4951259;28;92848;-74
2023/03/23 08:31:11;;;;;;;74.28;50.60;;;16.00;76.30;;;;;;4956952;28;90933;-73
2023/03/23 08:33:38;;;;;;;74.35;50.45;;;16.20;76.10;;;;;;4954171;28;90189;-75
2023/03/23 08:36:05;;;;;;;73.60;50.70;;;16.30;75.90;;;;;;4967881;28;90942;-73
2023/03/23 08:38:31;;;;;;;71.15;50.08;;;16.30;75.60;;;;;;4965701;28;90938;-73
2023/03/23 08:41:04;;;;;;;72.72;50.60;;;16.20;75.30;;;;;;4954882;28;89973;-71
2023/03/23 08:43:32;;;;;;;73.28;50.47;;;16.30;75.40;;;;;;4973008;28;91367;-75
2023/03/23 08:45:58;;;;;;;74.15;50.72;;;16.30;75.00;;;;;;4971932;28;89916;-73
2023/03/23 08:48:24;;;;;;;73.78;50.55;;;16.40;74.50;;;;;;4967696;28;89043;-74
2023/03/23 08:50:51;;;;;;;73.53;50.33;;;16.50;74.20;;;;;;4972797;28;89997;-75
2023/03/23 08:53:18;;;;;;;73.75;50.67;;;16.60;73.70;;;;;;4969407;28;90001;-74
2023/03/23 08:55:44;;;;;;;74.63;50.28;;;16.60;73.40;;;;;;4978818;28;91995;-74
2023/03/23 08:58:10;;;;;;;73.30;50.42;;;16.50;73.50;;;;;;4981231;28;90370;-76
2023/03/23 09:00:36;;;;;;;73.75;50.58;;;16.60;74.10;;;;;;4982802;28;96761;-74
2023/03/23 09:03:03;;;;;;;73.10;50.53;;;16.50;74.40;;;;;;4979435;28;89403;-74
2023/03/23 09:05:29;;;;;;;73.88;50.55;;;16.50;74.80;;;;;;4981815;28;89700;-76
2023/03/23 09:07:58;;;;;;;71.97;50.40;;;16.50;75.30;;;;;;4973870;28;91975;-75
2023/03/23 09:10:29;;;;;;;75.53;50.53;;;16.60;75.50;;;;;;4979264;28;90904;-75
2023/03/23 09:12:56;;;;;;;73.88;50.40;;;16.60;75.60;;;;;;4981995;28;88893;-75
2023/03/23 09:15:22;;;;;;;74.70;50.47;;;16.60;75.70;;;;;;4980925;28;89517;-72
2023/03/23 09:17:50;;;;;;;73.97;50.65;;;16.60;75.60;;;;;;4972475;28;89486;-72
2023/03/23 09:26:15;;;;;;;74.78;51.17;;;16.70;75.60;;;;;;5547375;22;89875;-76
2023/03/23 09:28:41;;;;;;;74.80;50.92;;;16.70;75.30;;;;;;4992487;22;90672;-57
2023/03/23 09:31:06;;;;;;;71.70;50.40;;;16.70;75.40;;;;;;4980797;28;90769;-64
2023/03/23 09:33:36;;;;;;;73.13;50.60;;;16.70;75.50;;;;;;4967800;28;91295;-64
2023/03/23 09:36:02;;;;;;;73.30;50.95;;;16.70;75.70;;;;;;4989814;28;90052;-69
2023/03/23 09:38:32;;;;;;;72.60;50.83;;;16.70;75.80;;;;;;4980029;28;89581;-65
2023/03/23 09:41:13;;;;;;;75.20;51.00;;;16.80;75.90;;;;;;4990296;28;90768;-61
2023/03/23 09:44:08;;;;;;;73.57;50.92;;;16.80;76.00;;;;;;4995585;28;89968;-60
2023/03/23 09:46:46;;;;;;;73.72;50.47;;;16.90;76.10;;;;;;4991012;28;91857;-60
2023/03/23 09:49:19;;;;;;;74.00;50.78;;;16.90;76.20;;;;;;4984424;28;91121;-62
2023/03/23 09:51:51;;;;;;;73.53;50.70;;;17.00;76.20;;;;;;4994046;28;93196;-70
2023/03/23 09:54:31;;;;;;;74.88;50.85;;;17.00;75.80;;;;;;4991182;28;90376;-76
2023/03/23 09:56:59;;;;;;;74.78;50.65;;;17.10;75.70;;;;;;4992571;28;89461;-65
2023/03/23 09:59:30;;;;;;;77.15;51.47;;;17.10;75.50;;;;;;4983754;28;93148;-63
2023/03/23 10:02:02;;;;;;;74.13;51.30;;;17.10;75.50;;;;;;4995464;28;90255;-61
2023/03/23 10:04:47;;;;;;;75.25;50.97;;;17.10;75.40;;;;;;4980970;28;90098;-71
2023/03/23 10:07:17;;;;;;;75.07;50.88;;;17.20;75.30;;;;;;4979768;28;90011;-62
2023/03/23 10:09:50;;;;;;;72.93;50.65;;;17.20;75.30;;;;;;4985333;28;89798;-64
2023/03/23 10:12:38;;;;;;;74.95;51.05;;;17.20;75.30;;;;;;4976499;28;91567;-63
2023/03/23 10:15:36;;;;;;;73.32;50.65;;;17.30;75.00;;;;;;4980873;27;91010;-60
2023/03/23 10:18:03;;;;;;;75.30;50.92;;;17.30;75.20;;;;;;4981191;28;92179;-72
2023/03/23 10:20:58;;;;;;;73.18;50.78;;;17.30;75.30;;;;;;4979578;28;95410;-70
2023/03/23 10:23:54;;;;;;;75.57;51.15;;;17.30;75.00;;;;;;4991800;28;89838;-59
2023/03/23 10:26:44;;;;;;;75.32;51.35;;;17.40;74.70;;;;;;4988774;28;91457;-63
2023/03/23 10:29:27;;;;;;;74.63;50.95;;;17.40;74.80;;;;;;4985666;28;91418;-61
2023/03/23 10:31:59;;;;;;;75.28;51.17;;;17.50;74.70;;;;;;4992036;28;88876;-67
2023/03/23 10:34:43;;;;;;;75.38;50.95;;;17.50;74.90;;;;;;4987522;28;90787;-64
2023/03/23 10:37:40;;;;;;;74.13;51.10;;;17.50;74.70;;;;;;4993175;28;90055;-59
2023/03/23 10:40:14;;;;;;;76.53;51.40;;;17.60;74.70;;;;;;4976082;28;90966;-60
2023/03/23 10:42:41;;;;;;;75.28;51.13;;;17.70;74.80;;;;;;4991312;28;90399;-64
2023/03/23 10:45:29;;;;;;;76.20;51.20;;;17.70;74.10;;;;;;4984365;28;91076;-73
2023/03/23 10:48:23;;;;;;;76.22;51.60;;;17.70;74.20;;;;;;4991712;28;90128;-62
2023/03/23 10:50:56;;;;;;;76.30;51.05;;;17.80;73.90;;;;;;4987699;28;90013;-62
2023/03/23 10:53:32;;;;;;;76.70;51.45;;;17.80;74.10;;;;;;4981778;28;93001;-65
2023/03/23 10:55:58;;;;;;;78.38;51.58;;;17.80;73.90;;;;;;4989534;28;89919;-64
2023/03/23 10:58:33;;;;;;;75.88;51.35;;;17.90;73.10;;;;;;4988819;28;91375;-66
2023/03/23 11:01:00;;;;;;;74.82;51.42;;;17.90;72.50;;;;;;4987315;27;90395;-68
2023/03/23 11:03:29;;;;;;;76.50;51.65;;;17.90;72.50;;;;;;4979498;28;90022;-65
2023/03/23 11:06:04;;;;;;;76.55;51.38;;;17.90;72.90;;;;;;4988931;28;91290;-64
2023/03/23 11:08:34;;;;;;;77.53;51.42;;;17.70;73.10;;;;;;4990523;28;90552;-57
2023/03/23 11:11:24;;;;;;;75.53;51.17;;;17.70;73.30;;;;;;4994713;28;92298;-66
2023/03/23 11:14:12;;;;;;;74.63;50.92;;;17.60;73.10;;;;;;4985151;28;90685;-68
2023/03/23 11:16:50;;;;;;;76.10;51.25;;;17.70;73.00;;;;;;4980552;28;91090;-66
2023/03/23 11:19:26;;;;;;;75.38;51.17;;;17.70;73.40;;;;;;4979024;28;92192;-63
2023/03/23 11:21:54;;;;;;;75.68;51.05;;;17.80;72.50;;;;;;4984799;28;89978;-66
2023/03/23 11:24:26;;;;;;;76.85;51.35;;;17.80;72.20;;;;;;4989202;28;89205;-67
2023/03/23 11:26:53;;;;;;;80.05;51.13;;;17.70;71.90;;;;;;4987704;28;89926;-69
2023/03/23 11:29:28;;;;;;;76.97;51.58;;;17.80;71.80;;;;;;4991111;28;90392;-62
2023/03/23 11:32:07;;;;;;;76.20;50.90;;;17.80;71.80;;;;;;4984541;28;91046;-57
2023/03/23 11:34:45;;;;;;;77.07;51.20;;;17.80;71.70;;;;;;4986711;28;90115;-72
2023/03/23 11:37:32;;;;;;;74.38;51.13;;;17.90;71.50;;;;;;4986042;28;89674;-65
2023/03/23 11:40:15;;;;;;;76.68;51.35;;;17.90;71.40;;;;;;4990293;28;90063;-73
2023/03/23 11:42:48;;;;;;;77.50;51.30;;;17.80;71.50;;;;;;4979861;28;90678;-67
2023/03/23 11:45:36;;;;;;;76.07;50.88;;;17.80;71.60;;;;;;4987550;27;90781;-66
2023/03/23 11:48:20;;;;;;;79.35;51.80;;;17.90;72.10;;;;;;4987057;28;91559;-66
2023/03/23 11:50:56;;;;;;;75.72;51.08;;;18.00;72.70;;;;;;4989454;28;89977;-67
2023/03/23 11:53:48;;;;;;;76.38;51.72;;;18.00;73.00;;;;;;4987384;28;90196;-62
2023/03/23 11:56:27;;;;;;;78.15;51.75;;;18.00;73.30;;;;;;4989966;28;89585;-64
2023/03/23 11:58:55;;;;;;;76.05;51.40;;;18.10;73.40;;;;;;4990035;28;91513;-61
2023/03/23 12:01:30;;;;;;;77.75;51.70;;;18.10;73.50;;;;;;4988276;28;90113;-57
2023/03/23 12:04:22;;;;;;;76.90;51.47;;;18.20;73.50;;;;;;4982078;28;91609;-64
2023/03/23 12:07:14;;;;;;;80.22;51.67;;;18.20;73.70;;;;;;4981646;28;95459;-66
2023/03/23 12:10:02;;;;;;;76.93;51.65;;;18.30;73.60;;;;;;4966566;28;90506;-74
2023/03/23 12:13:00;;;;;;;78.18;51.55;;;18.30;73.50;;;;;;4985810;28;90554;-59
2023/03/23 12:15:31;;;;;;;82.32;52.30;;;18.40;73.30;;;;;;4971257;28;89919;-61
2023/03/23 12:17:57;;;;;;;76.70;51.80;;;18.30;72.90;;;;;;4996605;28;88932;-63
2023/03/23 12:20:59;;;;;;;78.38;52.25;;;18.30;73.00;;;;;;4987920;28;91338;-62
2023/03/23 12:23:37;;;;;;;77.47;51.97;;;18.40;73.10;;;;;;4986670;28;91697;-62
2023/03/23 12:26:31;;;;;;;78.75;52.25;;;18.40;72.90;;;;;;4990144;28;91054;-57
2023/03/23 12:28:56;;;;;;;77.70;51.80;;;18.40;72.70;;;;;;4985542;27;89909;-67
2023/03/23 12:31:28;;;;;;;78.88;52.38;;;18.40;72.90;;;;;;4996540;28;91387;-62
2023/03/23 12:34:18;;;;;;;78.88;52.05;;;18.40;72.50;;;;;;4989073;28;96203;-58
2023/03/23 12:36:56;;;;;;;80.90;52.15;;;18.30;72.60;;;;;;4992604;28;90856;-68
2023/03/23 12:39:32;;;;;;;80.60;52.67;;;18.30;73.40;;;;;;4993288;28;90163;-75
2023/03/23 12:42:25;;;;;;;77.63;52.03;;;18.40;73.80;;;;;;4991629;28;90074;-71
2023/03/23 12:44:55;;;;;;;80.82;52.33;;;18.30;73.80;;;;;;4979088;28;90607;-64
2023/03/23 12:47:44;;;;;;;83.87;52.17;;;18.40;74.10;;;;;;4995806;28;89521;-71
2023/03/23 12:50:22;;;;;;;87.65;52.42;;;18.40;74.40;;;;;;4990434;28;92129;-74
2023/03/23 12:52:59;;;;;;;78.20;52.22;;;18.40;74.40;;;;;;4989746;28;91348;-71
2023/03/23 12:55:46;;;;;;;78.75;52.28;;;18.40;74.30;;;;;;4989140;28;91199;-69